createdAt,value
2023-01-09T00:02:05.582Z,99449.03
2023-01-09T00:04:32.547Z,99444.81
2023-01-09T00:06:59.302Z,99499.56
2023-01-09T00:09:26.280Z,99427.94
2023-01-09T00:11:54.965Z,99461.78
2023-01-09T00:14:23.000Z,99479.41
2023-01-09T00:16:50.160Z,99476.78
2023-01-09T00:19:16.996Z,99502.03
2023-01-09T00:21:43.693Z,99507.97
2023-01-09T00:24:10.440Z,99427.94
2023-01-09T00:26:37.180Z,99488.53
2023-01-09T00:29:06.053Z,99485.16
2023-01-09T00:31:32.733Z,99456.44
2023-01-09T00:34:10.395Z,99480.84
2023-01-09T00:36:37.211Z,99415.16
2023-01-09T00:39:05.483Z,99426.19
2023-01-09T00:41:37.832Z,99459.69
2023-01-09T00:44:11.775Z,99411.84
2023-01-09T00:46:43.864Z,99446.41
2023-01-09T00:49:12.864Z,99425.25
2023-01-09T00:51:41.264Z,99421.06
2023-01-09T00:54:10.221Z,99421.00
2023-01-09T00:56:37.280Z,99429.34
2023-01-09T00:59:04.976Z,99448.72
2023-01-09T01:01:32.239Z,99453.75
2023-01-09T01:03:59.220Z,99418.25
2023-01-09T01:06:44.604Z,99400.63
2023-01-09T01:09:11.373Z,99267.59
2023-01-09T01:11:38.341Z,99398.81
2023-01-09T01:14:05.124Z,99350.91
2023-01-09T01:16:32.585Z,99299.66
2023-01-09T01:18:59.300Z,99423.38
2023-01-09T01:21:26.068Z,99377.97
2023-01-09T01:23:52.917Z,99407.41
2023-01-09T01:26:19.618Z,99351.84
2023-01-09T01:28:46.335Z,99401.38
2023-01-09T01:31:18.656Z,99412.34
2023-01-09T01:33:45.645Z,99314.72
2023-01-09T01:36:12.519Z,99377.06
2023-01-09T01:38:39.256Z,99360.25
2023-01-09T01:41:07.114Z,99361.91
2023-01-09T01:43:55.694Z,99395.47
2023-01-09T01:46:22.788Z,99313.88
2023-01-09T01:49:07.409Z,99349.25
2023-01-09T01:51:39.905Z,99343.25
2023-01-09T01:54:11.644Z,99376.06
2023-01-09T01:56:44.371Z,99408.13
2023-01-09T01:59:34.893Z,99403.06
2023-01-09T02:02:03.234Z,99364.50
2023-01-09T02:04:34.292Z,99414.16
2023-01-09T02:07:04.839Z,99388.16
2023-01-09T02:09:31.933Z,99346.75
2023-01-09T02:12:00.690Z,99401.41
2023-01-09T02:14:31.890Z,99322.31
2023-01-09T02:17:23.166Z,99396.31
2023-01-09T02:20:08.302Z,99380.16
2023-01-09T02:23:05.404Z,99387.78
2023-01-09T02:25:44.677Z,99290.88
2023-01-09T02:28:31.692Z,99367.34
2023-01-09T02:31:28.685Z,99364.03
2023-01-09T02:34:22.972Z,99365.81
2023-01-09T02:37:04.129Z,99350.63
2023-01-09T02:39:33.547Z,99348.91
2023-01-09T02:42:04.299Z,99348.03
2023-01-09T02:44:34.421Z,99296.66
2023-01-09T02:47:16.081Z,99348.88
2023-01-09T02:49:59.709Z,99354.81
2023-01-09T02:52:41.411Z,99359.00
2023-01-09T02:55:26.793Z,99336.22
2023-01-09T02:58:12.148Z,99345.50
2023-01-09T03:00:41.967Z,99333.66
2023-01-09T03:03:12.007Z,99335.44
2023-01-09T03:05:47.798Z,99276.56
2023-01-09T03:08:20.672Z,99233.66
2023-01-09T03:11:04.711Z,99326.09
2023-01-09T03:13:54.063Z,99341.34
2023-01-09T03:16:25.772Z,99334.63
2023-01-09T03:18:54.177Z,99171.50
2023-01-09T03:21:22.634Z,99318.66
2023-01-09T03:23:53.911Z,99279.09
2023-01-09T03:26:21.273Z,99200.97
2023-01-09T03:28:48.151Z,99301.84
2023-01-09T03:31:15.376Z,99286.72
2023-01-09T03:33:42.298Z,99292.59
2023-01-09T03:36:10.419Z,99249.69
2023-01-09T03:38:37.494Z,99278.25
2023-01-09T03:41:05.087Z,99302.59
2023-01-09T03:43:32.070Z,99300.97
2023-01-09T03:45:59.344Z,99290.88
2023-01-09T03:48:26.264Z,99298.56
2023-01-09T03:50:54.675Z,99180.09
2023-01-09T03:53:23.658Z,99274.13
2023-01-09T03:55:52.858Z,99249.84
2023-01-09T03:58:21.060Z,99282.66
2023-01-09T04:00:52.295Z,99276.72
2023-01-09T04:03:20.472Z,99235.38
2023-01-09T04:05:49.588Z,99303.50
2023-01-09T04:08:17.717Z,99268.25
2023-01-09T04:10:45.676Z,99274.91
2023-01-09T04:13:12.672Z,99275.00
2023-01-09T04:15:39.549Z,99320.53
2023-01-09T04:18:06.637Z,99281.84
2023-01-09T04:20:33.770Z,99256.59
2023-01-09T04:23:00.743Z,99233.91
2023-01-09T04:25:27.738Z,99236.31
2023-01-09T04:27:54.574Z,99233.81
2023-01-09T04:30:21.608Z,99193.31
2023-01-09T04:32:48.389Z,99226.91
2023-01-09T04:35:15.328Z,99221.84
2023-01-09T04:37:42.040Z,99237.97
2023-01-09T04:40:10.429Z,99186.72
2023-01-09T04:42:38.016Z,99242.25
2023-01-09T04:45:06.202Z,99268.19
2023-01-09T04:47:33.061Z,99258.22
2023-01-09T04:50:01.014Z,99215.25
2023-01-09T04:52:28.141Z,99260.72
2023-01-09T04:54:54.878Z,99284.25
2023-01-09T04:57:22.056Z,99285.09
2023-01-09T04:59:48.789Z,99261.44
2023-01-09T05:02:15.841Z,99297.72
2023-01-09T05:04:42.701Z,99209.31
2023-01-09T05:07:09.449Z,99233.72
2023-01-09T05:09:36.262Z,99251.41
2023-01-09T05:12:03.326Z,99271.56
2023-01-09T05:14:30.293Z,99266.50
2023-01-09T05:16:57.108Z,99262.28
2023-01-09T05:19:24.335Z,99203.59
2023-01-09T05:21:51.029Z,99130.41
2023-01-09T05:24:18.197Z,99264.13
2023-01-09T05:26:44.957Z,99223.75
2023-01-09T05:29:11.660Z,99272.47
2023-01-09T05:31:38.510Z,99235.47
2023-01-09T05:34:05.751Z,99265.81
2023-01-09T05:36:32.637Z,99239.66
2023-01-09T05:38:59.498Z,99244.66
2023-01-09T05:41:26.490Z,99269.06
2023-01-09T05:43:53.269Z,99172.31
2023-01-09T05:46:20.182Z,99232.00
2023-01-09T05:48:47.130Z,99174.03
2023-01-09T05:51:14.109Z,99251.38
2023-01-09T05:53:40.893Z,99210.25
2023-01-09T05:56:07.932Z,99136.38
2023-01-09T05:58:38.158Z,99236.41
2023-01-09T06:01:05.085Z,99183.50
2023-01-09T06:03:31.922Z,99207.88
2023-01-09T06:06:01.342Z,99292.81
2023-01-09T06:08:28.127Z,99281.75
2023-01-09T06:10:55.180Z,99279.22
2023-01-09T06:13:22.201Z,99288.63
2023-01-09T06:15:49.440Z,99277.66
2023-01-09T06:18:16.516Z,99266.81
2023-01-09T06:20:45.908Z,99292.09
2023-01-09T06:23:13.719Z,99267.56
2023-01-09T06:25:41.000Z,99217.03
2023-01-09T06:28:08.025Z,99250.69
2023-01-09T06:30:35.231Z,99214.66
2023-01-09T06:33:01.991Z,99259.16
2023-01-09T06:35:29.160Z,99280.25
2023-01-09T06:37:56.187Z,99279.50
2023-01-09T06:40:23.005Z,99211.34
2023-01-09T06:42:50.109Z,99265.13
2023-01-09T06:45:17.356Z,99235.63
2023-01-09T06:47:44.104Z,99270.09
2023-01-09T06:50:12.047Z,99241.53
2023-01-09T06:52:39.246Z,99220.50
2023-01-09T06:55:06.872Z,99253.19
2023-01-09T06:57:33.606Z,99209.44
2023-01-09T07:00:00.514Z,99183.41
2023-01-09T07:02:27.250Z,99255.03
2023-01-09T07:04:53.915Z,99210.50
2023-01-09T07:07:22.379Z,99268.38
2023-01-09T07:09:49.243Z,99239.75
2023-01-09T07:12:25.564Z,99277.66
2023-01-09T07:14:52.683Z,99247.38
2023-01-09T07:17:19.468Z,99257.50
2023-01-09T07:19:46.341Z,99259.16
2023-01-09T07:22:13.216Z,99262.56
2023-01-09T07:24:40.038Z,99264.28
2023-01-09T07:27:06.760Z,99275.16
2023-01-09T07:29:33.591Z,99251.50
2023-01-09T07:32:00.317Z,99270.88
2023-01-09T07:34:26.990Z,99214.47
2023-01-09T07:36:53.731Z,99265.69
2023-01-09T07:39:20.812Z,99225.41
2023-01-09T07:41:47.705Z,99231.25
2023-01-09T07:44:15.752Z,99255.72
2023-01-09T07:46:42.494Z,99266.63
2023-01-09T07:49:09.262Z,99212.69
2023-01-09T07:51:39.107Z,99276.63
2023-01-09T07:54:06.079Z,99265.84
2023-01-09T07:56:32.848Z,99217.00
2023-01-09T07:58:59.534Z,99279.03
2023-01-09T08:01:26.368Z,99237.75
2023-01-09T08:03:53.909Z,99291.63
2023-01-09T08:06:20.930Z,99279.00
2023-01-09T08:08:48.043Z,99180.63
2023-01-09T08:11:14.933Z,99189.03
2023-01-09T08:13:41.872Z,99280.72
2023-01-09T08:16:08.728Z,99243.78
2023-01-09T08:18:35.558Z,99152.88
2023-01-09T08:21:02.328Z,99281.53
2023-01-09T08:23:29.086Z,99247.94
2023-01-09T08:25:55.933Z,99250.25
2023-01-09T08:28:22.630Z,99186.28
2023-01-09T08:30:49.456Z,99210.69
2023-01-09T08:33:16.318Z,99247.66
2023-01-09T08:35:44.502Z,99235.88
2023-01-09T08:38:11.570Z,99206.41
2023-01-09T08:40:38.629Z,99245.88
2023-01-09T08:43:24.208Z,99217.19
2023-01-09T08:46:10.215Z,99197.97
2023-01-09T08:48:37.004Z,99241.69
2023-01-09T08:51:03.983Z,99223.13
2023-01-09T08:53:31.550Z,99181.03
2023-01-09T08:55:59.229Z,99160.94
2023-01-09T08:58:26.561Z,99202.06
2023-01-09T09:00:53.419Z,99174.25
2023-01-09T09:03:21.673Z,99143.94
2023-01-09T09:05:48.500Z,99218.69
2023-01-09T09:08:16.508Z,99166.56
2023-01-09T09:10:43.447Z,99116.13
2023-01-09T09:13:10.342Z,99209.50
2023-01-09T09:15:38.945Z,99170.09
2023-01-09T09:18:07.177Z,99178.53
2023-01-09T09:20:36.980Z,99123.00
2023-01-09T09:23:04.127Z,99155.66
2023-01-09T09:25:31.398Z,99159.00
2023-01-09T09:27:58.296Z,99128.69
2023-01-09T09:30:25.268Z,99170.59
2023-01-09T09:32:52.313Z,99100.19
2023-01-09T09:35:20.922Z,99172.28
2023-01-09T09:37:56.150Z,99157.22
2023-01-09T09:40:48.844Z,99173.16
2023-01-09T09:44:10.045Z,99164.13
2023-01-09T09:46:45.881Z,99170.81
2023-01-09T09:49:19.895Z,99128.78
2023-01-09T09:51:46.665Z,99172.41
2023-01-09T09:54:19.015Z,99101.03
2023-01-09T09:56:51.799Z,99145.47
2023-01-09T09:59:26.822Z,99178.25
2023-01-09T10:02:02.448Z,99158.06
2023-01-09T10:04:32.517Z,99152.00
2023-01-09T10:07:09.622Z,99131.03
2023-01-09T10:09:47.714Z,99081.56
2023-01-09T10:12:39.227Z,99067.28
2023-01-09T10:15:21.094Z,99132.78
2023-01-09T10:18:04.539Z,99146.16
2023-01-09T10:20:52.434Z,99147.00
2023-01-09T10:23:34.030Z,99110.81
2023-01-09T10:26:11.846Z,99104.97
2023-01-09T10:28:59.184Z,98813.78
2023-01-09T10:31:39.284Z,99039.38
2023-01-09T10:34:44.828Z,99118.19
2023-01-09T10:37:16.264Z,99086.19
2023-01-09T10:40:24.947Z,99125.63
2023-01-09T10:43:00.152Z,99117.34
2023-01-09T10:45:34.957Z,99053.31
2023-01-09T10:48:24.905Z,99068.44
2023-01-09T10:50:52.654Z,99076.78
2023-01-09T10:53:43.139Z,99101.19
2023-01-09T10:56:28.842Z,99095.19
2023-01-09T10:58:56.384Z,99003.69
2023-01-09T11:01:29.908Z,99005.38
2023-01-09T11:03:59.212Z,99036.41
2023-01-09T11:06:40.170Z,99083.38
2023-01-09T11:09:07.574Z,99049.78
2023-01-09T11:11:40.836Z,98873.69
2023-01-09T11:14:27.574Z,99021.28
2023-01-09T11:17:01.392Z,99056.59
2023-01-09T11:19:28.635Z,99047.44
2023-01-09T11:22:28.341Z,99024.84
2023-01-09T11:25:02.952Z,99044.22
2023-01-09T11:27:29.777Z,99070.03
2023-01-09T11:30:22.488Z,99085.88
2023-01-09T11:32:49.468Z,99085.97
2023-01-09T11:35:34.736Z,99040.19
2023-01-09T11:38:12.300Z,99111.25
2023-01-09T11:40:50.816Z,99084.31
2023-01-09T11:43:30.441Z,99016.38
2023-01-09T11:46:01.528Z,99025.44
2023-01-09T11:48:56.971Z,99042.19
2023-01-09T11:51:26.435Z,99068.28
2023-01-09T11:53:53.238Z,99095.94
2023-01-09T11:56:20.116Z,99053.38
2023-01-09T11:58:46.915Z,99080.22
2023-01-09T12:01:19.479Z,99100.34
2023-01-09T12:04:08.481Z,99034.75
2023-01-09T12:06:47.381Z,99106.09
2023-01-09T12:09:43.185Z,99108.59
2023-01-09T12:12:25.465Z,99103.59
2023-01-09T12:15:02.298Z,99103.59
2023-01-09T12:17:41.369Z,99103.63
2023-01-09T12:20:14.151Z,99098.63
2023-01-09T12:23:16.380Z,99090.88
2023-01-09T12:25:48.919Z,99091.56
2023-01-09T12:28:30.759Z,99081.31
2023-01-09T12:31:09.308Z,99084.56
2023-01-09T12:34:03.712Z,99084.63
2023-01-09T12:36:54.892Z,99094.88
2023-01-09T12:39:33.576Z,99089.88
2023-01-09T12:42:30.613Z,99102.44
2023-01-09T12:45:47.796Z,99081.25
2023-01-09T12:48:39.204Z,99074.53
2023-01-09T12:51:17.062Z,99066.91
2023-01-09T12:53:51.228Z,99087.19
2023-01-09T12:56:24.544Z,99069.50
2023-01-09T12:58:55.774Z,98999.00
2023-01-09T13:01:32.611Z,99024.34
2023-01-09T13:04:28.433Z,99043.63
2023-01-09T13:07:01.272Z,99071.47
2023-01-09T13:09:46.889Z,99009.50
2023-01-09T13:12:22.539Z,99075.59
2023-01-09T13:14:56.730Z,99078.91
2023-01-09T13:17:51.464Z,99083.16
2023-01-09T13:20:23.388Z,99075.66
2023-01-09T13:22:52.423Z,99014.34
2023-01-09T13:25:44.776Z,99046.22
2023-01-09T13:28:26.673Z,99081.31
2023-01-09T13:30:58.591Z,99075.31
2023-01-09T13:33:32.753Z,99071.09
2023-01-09T13:36:00.197Z,99082.97
2023-01-09T13:38:31.306Z,99087.19
2023-01-09T13:41:22.184Z,99038.47
2023-01-09T13:44:18.930Z,99011.88
2023-01-09T13:46:50.335Z,99066.16
2023-01-09T13:49:41.936Z,99065.28
2023-01-09T13:52:33.579Z,99064.47
2023-01-09T13:55:02.297Z,98994.19
2023-01-09T13:57:31.996Z,99064.47
2023-01-09T14:00:14.691Z,99056.84
2023-01-09T14:02:42.061Z,99070.41
2023-01-09T14:05:17.027Z,99050.28
2023-01-09T14:07:45.755Z,98998.34
2023-01-09T14:10:26.809Z,99078.13
2023-01-09T14:12:56.016Z,99027.78
2023-01-09T14:15:37.093Z,99075.59
2023-01-09T14:18:06.927Z,99056.25
2023-01-09T14:20:39.623Z,99027.78
2023-01-09T14:23:31.481Z,99058.72
2023-01-09T14:25:55.234Z,99032.66
2023-01-09T14:28:27.478Z,99064.56
2023-01-09T14:30:54.308Z,99069.47
2023-01-09T14:33:25.219Z,99064.34
2023-01-09T14:36:10.332Z,99050.84
2023-01-09T14:38:43.220Z,99044.97
2023-01-09T14:41:47.616Z,99041.53
2023-01-09T14:44:42.631Z,99046.59
2023-01-09T14:47:31.222Z,99038.09
2023-01-09T14:50:04.271Z,99042.25
2023-01-09T14:52:37.007Z,99017.94
2023-01-09T14:55:13.888Z,99062.66
2023-01-09T14:57:40.583Z,99042.13
2023-01-09T15:00:14.661Z,99045.50
2023-01-09T15:02:43.041Z,99038.72
2023-01-09T15:05:23.561Z,98989.34
2023-01-09T15:07:54.354Z,99036.03
2023-01-09T15:10:25.189Z,99064.00
2023-01-09T15:12:55.009Z,99040.31
2023-01-09T15:15:22.909Z,98887.97
2023-01-09T15:17:59.187Z,98923.19
2023-01-09T15:20:29.956Z,99030.34
2023-01-09T15:22:57.948Z,99038.81
2023-01-09T15:25:44.618Z,99040.41
2023-01-09T15:28:32.316Z,98991.69
2023-01-09T15:31:18.147Z,99006.94
2023-01-09T15:33:47.493Z,99004.22
2023-01-09T15:36:20.907Z,98995.09
2023-01-09T15:38:50.133Z,99042.03
2023-01-09T15:41:47.624Z,98960.50
2023-01-09T15:44:22.748Z,99004.00
2023-01-09T15:46:50.925Z,99008.94
2023-01-09T15:49:19.511Z,99005.44
2023-01-09T15:51:47.810Z,99009.69
2023-01-09T15:54:17.083Z,99038.44
2023-01-09T15:56:45.876Z,98998.78
2023-01-09T15:59:27.448Z,98980.59
2023-01-09T16:02:19.471Z,98974.53
2023-01-09T16:04:47.945Z,99000.75
2023-01-09T16:07:16.988Z,98997.34
2023-01-09T16:09:47.558Z,98968.97
2023-01-09T16:12:21.999Z,98984.66
2023-01-09T16:14:55.784Z,99018.97
2023-01-09T16:17:27.222Z,98971.06
2023-01-09T16:19:55.401Z,99015.47
2023-01-09T16:22:33.254Z,98981.22
2023-01-09T16:25:02.379Z,99025.66
2023-01-09T16:27:33.337Z,99037.44
2023-01-09T16:30:07.711Z,99012.78
2023-01-09T16:32:51.467Z,98995.13
2023-01-09T16:35:20.732Z,98937.97
2023-01-09T16:37:48.220Z,99013.59
2023-01-09T16:40:20.326Z,99006.88
2023-01-09T16:43:03.309Z,98899.66
2023-01-09T16:45:34.492Z,98988.38
2023-01-09T16:48:03.475Z,99008.50
2023-01-09T16:50:30.328Z,99000.84
2023-01-09T16:52:57.422Z,98882.81
2023-01-09T16:55:24.331Z,98983.28
2023-01-09T16:57:51.308Z,98945.69
2023-01-09T17:00:19.930Z,98937.25
2023-01-09T17:02:46.970Z,98994.09
2023-01-09T17:05:13.956Z,98954.69
2023-01-09T17:07:40.747Z,98930.47
2023-01-09T17:10:20.442Z,98949.69
2023-01-09T17:12:47.231Z,99004.88
2023-01-09T17:15:14.075Z,98974.50
2023-01-09T17:17:40.969Z,98960.94
2023-01-09T17:20:16.273Z,98989.41
2023-01-09T17:22:44.230Z,98946.75
2023-01-09T17:25:33.272Z,98962.47
2023-01-09T17:28:19.279Z,98987.59
2023-01-09T17:30:46.077Z,98978.34
2023-01-09T17:33:19.955Z,98956.72
2023-01-09T17:35:46.941Z,98931.34
2023-01-09T17:38:16.111Z,98999.34
2023-01-09T17:40:43.635Z,98854.41
2023-01-09T17:43:12.214Z,98964.78
2023-01-09T17:45:44.718Z,98983.19
2023-01-09T17:48:20.518Z,98968.88
2023-01-09T17:50:49.130Z,98914.41
2023-01-09T17:53:17.950Z,98879.06
2023-01-09T17:55:44.882Z,98876.50
2023-01-09T17:58:32.059Z,98956.63
2023-01-09T18:01:01.905Z,98975.19
2023-01-09T18:03:34.365Z,98961.06
2023-01-09T18:06:02.934Z,98936.84
2023-01-09T18:08:30.495Z,98923.66
2023-01-09T18:10:57.871Z,98982.22
2023-01-09T18:13:25.933Z,98995.75
2023-01-09T18:15:55.117Z,98961.19
2023-01-09T18:18:25.347Z,98973.00
2023-01-09T18:20:56.204Z,98982.09
2023-01-09T18:23:26.321Z,98941.69
2023-01-09T18:25:54.562Z,98942.59
2023-01-09T18:28:23.044Z,98993.03
2023-01-09T18:30:52.896Z,98965.88
2023-01-09T18:33:20.214Z,98942.31
2023-01-09T18:35:47.738Z,98979.28
2023-01-09T18:38:16.476Z,98969.25
2023-01-09T18:40:43.871Z,98944.00
2023-01-09T18:43:15.580Z,98952.50
2023-01-09T18:45:42.559Z,98967.78
2023-01-09T18:48:12.038Z,98905.91
2023-01-09T18:50:41.021Z,98970.28
2023-01-09T18:53:07.943Z,98963.50
2023-01-09T18:55:38.073Z,98908.25
2023-01-09T18:58:08.044Z,98927.56
2023-01-09T19:00:37.184Z,98980.38
2023-01-09T19:03:04.523Z,98931.72
2023-01-09T19:05:33.835Z,98792.50
2023-01-09T19:08:02.077Z,98903.91
2023-01-09T19:10:30.446Z,98896.28
2023-01-09T19:12:59.006Z,98938.16
2023-01-09T19:15:28.017Z,98977.53
2023-01-09T19:17:55.968Z,98969.94
2023-01-09T19:20:24.325Z,98972.44
2023-01-09T19:22:52.272Z,98920.41
2023-01-09T19:25:19.118Z,98955.56
2023-01-09T19:27:45.844Z,98917.91
2023-01-09T19:30:12.963Z,98967.44
2023-01-09T19:32:42.817Z,98970.06
2023-01-09T19:35:09.647Z,98963.31
2023-01-09T19:37:37.324Z,98860.34
2023-01-09T19:40:05.133Z,98934.00
2023-01-09T19:42:33.412Z,98914.75
2023-01-09T19:45:00.587Z,98926.28
2023-01-09T19:47:27.714Z,98950.00
2023-01-09T19:49:58.019Z,98956.53
2023-01-09T19:52:25.094Z,98837.78
2023-01-09T19:54:52.074Z,98913.03
2023-01-09T19:57:19.391Z,98958.31
2023-01-09T19:59:46.279Z,98886.25
2023-01-09T20:02:14.697Z,98960.72
2023-01-09T20:04:41.664Z,98821.81
2023-01-09T20:07:10.225Z,98870.28
2023-01-09T20:09:37.373Z,98942.28
2023-01-09T20:12:05.464Z,98894.41
2023-01-09T20:14:32.476Z,98814.25
2023-01-09T20:17:04.158Z,98947.88
2023-01-09T20:19:32.565Z,98927.78
2023-01-09T20:22:00.884Z,98951.44
2023-01-09T20:24:28.128Z,98960.47
2023-01-09T20:26:55.004Z,98957.97
2023-01-09T20:29:21.980Z,98943.03
2023-01-09T20:31:51.246Z,98951.22
2023-01-09T20:34:18.131Z,98948.53
2023-01-09T20:36:45.672Z,98969.50
2023-01-09T20:39:13.003Z,98848.00
2023-01-09T20:41:40.048Z,98964.34
2023-01-09T20:44:11.535Z,98939.13
2023-01-09T20:46:41.789Z,98993.22
2023-01-09T20:49:12.044Z,98911.31
2023-01-09T20:51:48.545Z,98963.50
2023-01-09T20:54:17.235Z,98964.38
2023-01-09T20:56:44.207Z,98884.19
2023-01-09T20:59:13.321Z,98918.09
2023-01-09T21:01:40.389Z,98916.91
2023-01-09T21:04:08.737Z,98924.19
2023-01-09T21:06:36.058Z,98915.84
2023-01-09T21:09:04.395Z,98905.94
2023-01-09T21:11:31.529Z,98956.59
2023-01-09T21:13:58.301Z,98916.41
2023-01-09T21:16:25.634Z,98938.19
2023-01-09T21:18:54.027Z,98918.22
2023-01-09T21:21:24.273Z,98936.59
2023-01-09T21:23:54.663Z,98920.81
2023-01-09T21:26:24.880Z,98960.09
2023-01-09T21:28:55.077Z,98888.69
2023-01-09T21:31:30.815Z,98986.41
2023-01-09T21:33:57.763Z,98963.19
2023-01-09T21:36:24.695Z,98920.44
2023-01-09T21:38:54.387Z,98918.47
2023-01-09T21:41:40.382Z,98964.47
2023-01-09T21:44:31.873Z,98960.97
2023-01-09T21:47:00.891Z,98938.31
2023-01-09T21:49:31.223Z,98857.22
2023-01-09T21:51:58.470Z,98933.44
2023-01-09T21:54:25.449Z,98945.97
2023-01-09T21:56:53.022Z,98864.78
2023-01-09T21:59:19.988Z,98845.63
2023-01-09T22:01:48.743Z,98897.47
2023-01-09T22:04:17.611Z,98963.53
2023-01-09T22:06:44.929Z,98887.34
2023-01-09T22:09:12.458Z,98872.22
2023-01-09T22:11:39.817Z,98963.31
2023-01-09T22:14:07.091Z,98933.09
2023-01-09T22:16:34.266Z,98836.09
2023-01-09T22:19:01.087Z,98963.19
2023-01-09T22:21:28.182Z,98879.47
2023-01-09T22:23:54.932Z,98967.41
2023-01-09T22:26:22.163Z,98958.88
2023-01-09T22:28:49.769Z,98910.19
2023-01-09T22:31:19.239Z,98875.09
2023-01-09T22:33:50.938Z,98979.84
2023-01-09T22:36:17.940Z,98886.84
2023-01-09T22:38:45.327Z,98939.41
2023-01-09T22:41:12.554Z,98830.69
2023-01-09T22:43:39.922Z,98907.31
2023-01-09T22:46:11.198Z,98925.47
2023-01-09T22:48:39.617Z,98953.38
2023-01-09T22:51:10.796Z,98949.97
2023-01-09T22:53:37.545Z,98903.53
2023-01-09T22:56:08.279Z,98858.03
2023-01-09T22:58:35.090Z,98937.66
2023-01-09T23:01:06.526Z,98944.22
2023-01-09T23:03:33.545Z,98940.72
2023-01-09T23:06:21.437Z,98896.34
2023-01-09T23:08:52.943Z,98920.47
2023-01-09T23:11:49.969Z,98897.91
2023-01-09T23:14:17.713Z,98956.38
2023-01-09T23:16:44.551Z,98894.63
2023-01-09T23:19:17.339Z,98922.25
2023-01-09T23:21:45.507Z,98944.59
2023-01-09T23:24:15.610Z,98966.28
2023-01-09T23:26:43.747Z,98946.09
2023-01-09T23:29:11.791Z,98968.63
2023-01-09T23:31:38.680Z,98921.75
2023-01-09T23:34:08.115Z,98903.31
2023-01-09T23:36:35.577Z,98985.41
2023-01-09T23:39:04.187Z,98751.19
2023-01-09T23:41:49.627Z,98970.94
2023-01-09T23:44:16.529Z,98948.66
2023-01-09T23:46:43.374Z,98976.03
2023-01-09T23:49:10.428Z,98947.78
2023-01-09T23:51:37.379Z,98899.84
2023-01-09T23:54:04.378Z,98977.47
2023-01-09T23:56:33.822Z,98897.81
2023-01-09T23:59:02.223Z,98912.84
